createdAt,value
2019-03-24T00:02:13.409Z,28.33
2019-03-24T00:04:42.384Z,28.70
2019-03-24T00:07:11.277Z,28.30
2019-03-24T00:09:40.119Z,28.83
2019-03-24T00:12:09.002Z,27.93
2019-03-24T00:14:37.859Z,26.50
2019-03-24T00:17:06.708Z,25.47
2019-03-24T00:19:35.638Z,24.27
2019-03-24T00:22:05.299Z,24.63
2019-03-24T00:24:34.298Z,24.30
2019-03-24T00:27:03.136Z,22.63
2019-03-24T00:29:31.931Z,23.83
2019-03-24T00:32:00.724Z,21.00
2019-03-24T00:34:29.552Z,22.50
2019-03-24T00:36:58.438Z,21.47
2019-03-24T00:39:27.613Z,19.53
2019-03-24T00:41:57.698Z,17.90
2019-03-24T00:44:26.656Z,17.70
2019-03-24T00:46:55.564Z,15.63
2019-03-24T00:49:24.540Z,13.80
2019-03-24T00:51:53.405Z,12.13
2019-03-24T00:54:22.242Z,11.50
2019-03-24T00:56:51.136Z,11.37
2019-03-24T00:59:19.916Z,10.40
2019-03-24T01:01:48.720Z,9.73
2019-03-24T01:04:17.541Z,9.63
2019-03-24T01:06:46.502Z,8.97
2019-03-24T01:09:15.600Z,10.10
2019-03-24T01:11:44.483Z,8.57
2019-03-24T01:14:13.291Z,8.70
2019-03-24T01:16:42.216Z,7.53
2019-03-24T01:19:10.972Z,7.80
2019-03-24T01:21:39.804Z,7.23
2019-03-24T01:24:08.679Z,7.30
2019-03-24T01:26:37.469Z,6.97
2019-03-24T01:29:06.440Z,6.50
2019-03-24T01:31:35.247Z,7.17
2019-03-24T01:34:04.414Z,6.87
2019-03-24T01:36:33.224Z,6.67
2019-03-24T01:39:02.199Z,6.87
2019-03-24T01:41:31.071Z,6.13
2019-03-24T01:43:59.957Z,6.40
2019-03-24T01:46:28.795Z,6.70
2019-03-24T01:48:57.791Z,6.47
2019-03-24T01:51:27.399Z,6.27
2019-03-24T01:53:57.040Z,6.87
2019-03-24T01:56:26.500Z,5.80
2019-03-24T01:58:56.045Z,6.33
2019-03-24T02:01:25.570Z,6.50
2019-03-24T02:03:55.236Z,6.73
2019-03-24T02:06:24.860Z,6.73
2019-03-24T02:08:54.503Z,8.30
2019-03-24T02:11:24.226Z,8.93
2019-03-24T02:13:53.824Z,7.53
2019-03-24T02:16:23.352Z,8.77
2019-03-24T02:18:52.927Z,8.83
2019-03-24T02:21:22.555Z,9.47
2019-03-24T02:23:52.122Z,10.77
2019-03-24T02:26:21.641Z,10.57
2019-03-24T02:28:51.172Z,11.00
2019-03-24T02:31:20.730Z,11.70
2019-03-24T02:33:50.292Z,11.00
2019-03-24T02:36:19.840Z,11.30
2019-03-24T02:38:49.469Z,10.07
2019-03-24T02:41:19.141Z,11.40
2019-03-24T02:43:48.824Z,9.77
2019-03-24T02:46:24.044Z,9.63
2019-03-24T02:48:49.505Z,9.17
2019-03-24T02:51:19.981Z,8.93
2019-03-24T02:53:49.500Z,9.00
2019-03-24T02:56:19.202Z,8.10
2019-03-24T02:58:48.792Z,8.60
2019-03-24T03:01:18.273Z,9.03
2019-03-24T03:03:47.868Z,8.37
2019-03-24T03:06:23.417Z,9.33
2019-03-24T03:08:53.019Z,8.43
2019-03-24T03:11:22.564Z,9.40
2019-03-24T03:13:52.174Z,8.93
2019-03-24T03:16:21.781Z,8.70
2019-03-24T03:18:51.507Z,8.80
2019-03-24T03:21:21.215Z,9.57
2019-03-24T03:23:50.807Z,9.53
2019-03-24T03:26:20.370Z,10.20
2019-03-24T03:28:49.970Z,9.77
2019-03-24T03:31:19.698Z,9.93
2019-03-24T03:33:49.281Z,9.80
2019-03-24T03:36:18.965Z,9.23
2019-03-24T03:38:48.602Z,9.90
2019-03-24T03:41:18.310Z,9.80
2019-03-24T03:43:47.979Z,10.13
2019-03-24T03:46:17.696Z,9.83
2019-03-24T03:48:47.225Z,9.27
2019-03-24T03:51:16.842Z,9.37
2019-03-24T03:53:46.453Z,9.40
2019-03-24T03:56:18.049Z,8.80
2019-03-24T03:58:47.633Z,9.00
2019-03-24T04:01:17.246Z,7.53
2019-03-24T04:03:46.895Z,8.40
2019-03-24T04:06:16.453Z,8.00
2019-03-24T04:08:46.048Z,8.43
2019-03-24T04:11:15.722Z,8.20
2019-03-24T04:13:45.271Z,7.27
2019-03-24T04:16:14.839Z,8.00
2019-03-24T04:18:44.357Z,7.60
2019-03-24T04:21:14.038Z,7.80
2019-03-24T04:23:43.541Z,7.10
2019-03-24T04:26:13.127Z,7.67
2019-03-24T04:28:42.748Z,7.23
2019-03-24T04:31:12.364Z,6.97
2019-03-24T04:33:41.858Z,7.60
2019-03-24T04:36:11.693Z,7.17
2019-03-24T04:38:41.179Z,6.50
2019-03-24T04:41:10.722Z,6.63
2019-03-24T04:43:40.292Z,6.63
2019-03-24T04:46:09.811Z,6.53
2019-03-24T04:48:39.431Z,6.67
2019-03-24T04:51:09.000Z,6.87
2019-03-24T04:53:38.581Z,6.60
2019-03-24T04:56:08.105Z,6.37
2019-03-24T04:58:37.640Z,6.13
2019-03-24T05:01:07.451Z,6.50
2019-03-24T05:03:37.070Z,6.63
2019-03-24T05:06:06.959Z,6.47
2019-03-24T05:08:37.246Z,7.00
2019-03-24T05:11:06.985Z,5.63
2019-03-24T05:13:36.591Z,6.10
2019-03-24T05:16:06.309Z,6.03
2019-03-24T05:18:35.813Z,6.27
2019-03-24T05:21:05.484Z,6.00
2019-03-24T05:23:35.157Z,5.83
2019-03-24T05:26:04.782Z,5.50
2019-03-24T05:28:34.394Z,5.77
2019-03-24T05:31:04.044Z,5.80
2019-03-24T05:33:33.632Z,6.43
2019-03-24T05:36:03.281Z,6.27
2019-03-24T05:38:32.870Z,6.23
2019-03-24T05:41:02.445Z,5.33
2019-03-24T05:43:31.977Z,6.37
2019-03-24T05:46:01.645Z,5.83
2019-03-24T05:48:31.181Z,5.77
2019-03-24T05:51:00.987Z,5.60
2019-03-24T05:53:30.882Z,5.73
2019-03-24T05:56:00.387Z,5.77
2019-03-24T05:58:30.056Z,5.23
2019-03-24T06:00:59.769Z,6.00
2019-03-24T06:03:29.399Z,6.83
2019-03-24T06:05:58.994Z,5.13
2019-03-24T06:08:28.559Z,5.23
2019-03-24T06:11:00.718Z,5.97
2019-03-24T06:13:30.295Z,5.17
2019-03-24T06:15:59.957Z,5.77
2019-03-24T06:18:29.467Z,5.40
2019-03-24T06:20:59.061Z,5.03
2019-03-24T06:23:28.988Z,5.80
2019-03-24T06:25:58.490Z,4.97
2019-03-24T06:28:28.339Z,4.70
2019-03-24T06:30:57.922Z,5.23
2019-03-24T06:33:27.543Z,5.50
2019-03-24T06:35:57.163Z,5.57
2019-03-24T06:38:26.889Z,5.73
2019-03-24T06:40:56.685Z,5.30
2019-03-24T06:43:27.317Z,5.10
2019-03-24T06:45:56.964Z,4.97
2019-03-24T06:48:26.528Z,4.73
2019-03-24T06:50:56.162Z,5.03
2019-03-24T06:53:25.702Z,5.43
2019-03-24T06:55:55.540Z,4.67
2019-03-24T06:58:25.115Z,4.73
2019-03-24T07:00:54.691Z,4.80
2019-03-24T07:03:24.343Z,5.40
2019-03-24T07:05:53.992Z,4.20
2019-03-24T07:08:23.619Z,4.80
2019-03-24T07:10:53.229Z,4.50
2019-03-24T07:13:22.964Z,4.63
2019-03-24T07:15:52.614Z,5.00
2019-03-24T07:18:22.426Z,4.93
2019-03-24T07:20:52.188Z,5.50
2019-03-24T07:23:21.718Z,4.30
2019-03-24T07:25:51.739Z,5.00
2019-03-24T07:28:21.293Z,4.47
2019-03-24T07:30:50.972Z,6.10
2019-03-24T07:33:20.814Z,4.97
2019-03-24T07:35:51.836Z,4.57
2019-03-24T07:38:22.645Z,5.13
2019-03-24T07:40:52.314Z,4.73
2019-03-24T07:43:21.850Z,4.60
2019-03-24T07:45:51.576Z,4.63
2019-03-24T07:48:21.183Z,4.80
2019-03-24T07:50:50.920Z,4.57
2019-03-24T07:53:20.566Z,5.07
2019-03-24T07:55:50.124Z,4.80
2019-03-24T07:58:19.840Z,4.57
2019-03-24T08:00:49.605Z,4.70
2019-03-24T08:03:50.744Z,5.23
2019-03-24T08:06:20.141Z,4.27
2019-03-24T08:08:49.781Z,4.80
2019-03-24T08:11:19.600Z,4.63
2019-03-24T08:13:54.037Z,4.07
2019-03-24T08:16:20.736Z,4.20
2019-03-24T08:18:50.347Z,5.07
2019-03-24T08:21:19.971Z,4.47
2019-03-24T08:23:49.560Z,4.97
2019-03-24T08:26:19.391Z,5.43
2019-03-24T08:28:49.090Z,4.93
2019-03-24T08:31:18.953Z,4.77
2019-03-24T08:33:48.750Z,5.73
2019-03-24T08:36:20.097Z,4.50
2019-03-24T08:38:50.122Z,5.00
2019-03-24T08:41:19.836Z,4.80
2019-03-24T08:43:49.831Z,4.73
2019-03-24T08:46:19.558Z,4.40
2019-03-24T08:48:49.526Z,4.50
2019-03-24T08:51:19.229Z,5.00
2019-03-24T08:53:48.782Z,5.90
2019-03-24T08:56:19.156Z,4.87
2019-03-24T08:58:48.748Z,3.73
2019-03-24T09:01:18.521Z,4.20
2019-03-24T09:03:48.176Z,4.47
2019-03-24T09:06:17.945Z,4.20
2019-03-24T09:08:49.013Z,3.90
2019-03-24T09:11:18.970Z,4.23
2019-03-24T09:13:48.612Z,3.73
2019-03-24T09:16:18.246Z,4.60
2019-03-24T09:18:52.917Z,4.20
2019-03-24T09:21:19.656Z,4.20
2019-03-24T09:23:49.552Z,4.20
2019-03-24T09:26:19.413Z,4.40
2019-03-24T09:28:49.093Z,4.23
2019-03-24T09:31:18.760Z,5.20
2019-03-24T09:33:48.504Z,4.10
2019-03-24T09:36:18.100Z,4.10
2019-03-24T09:38:47.823Z,3.27
2019-03-24T09:41:18.881Z,3.97
2019-03-24T09:43:48.388Z,3.10
2019-03-24T09:46:18.061Z,3.73
2019-03-24T09:48:47.686Z,3.43
2019-03-24T09:51:21.040Z,3.23
2019-03-24T09:53:48.694Z,3.40
2019-03-24T09:56:18.412Z,3.20
2019-03-24T09:58:48.101Z,3.40
2019-03-24T10:01:17.788Z,3.73
2019-03-24T10:03:47.699Z,3.90
2019-03-24T10:06:17.318Z,3.77
2019-03-24T10:08:47.582Z,3.80
2019-03-24T10:11:17.539Z,3.77
2019-03-24T10:13:47.123Z,3.40
2019-03-24T10:16:16.909Z,4.00
2019-03-24T10:18:46.656Z,3.80
2019-03-24T10:21:16.536Z,4.00
2019-03-24T10:23:46.232Z,3.60
2019-03-24T10:26:15.812Z,3.73
2019-03-24T10:28:45.452Z,4.00
2019-03-24T10:31:15.126Z,3.60
2019-03-24T10:33:44.885Z,4.10
2019-03-24T10:36:14.443Z,3.03
2019-03-24T10:38:44.079Z,3.30
2019-03-24T10:41:13.729Z,3.03
2019-03-24T10:43:43.477Z,2.87
2019-03-24T10:46:12.960Z,3.83
2019-03-24T10:48:42.680Z,3.30
2019-03-24T10:51:12.337Z,3.50
2019-03-24T10:53:42.208Z,3.77
2019-03-24T10:56:12.000Z,3.50
2019-03-24T10:58:41.836Z,3.57
2019-03-24T11:01:11.639Z,3.20
2019-03-24T11:03:41.173Z,3.40
2019-03-24T11:06:10.833Z,3.73
2019-03-24T11:08:40.465Z,3.67
2019-03-24T11:11:10.231Z,3.57
2019-03-24T11:13:39.939Z,3.13
2019-03-24T11:16:09.766Z,3.50
2019-03-24T11:18:39.396Z,3.27
2019-03-24T11:21:09.243Z,3.40
2019-03-24T11:23:39.093Z,3.40
2019-03-24T11:26:08.699Z,3.20
2019-03-24T11:28:38.483Z,3.03
2019-03-24T11:31:08.255Z,3.67
2019-03-24T11:33:37.876Z,3.60
2019-03-24T11:36:07.806Z,3.40
2019-03-24T11:38:37.568Z,3.07
2019-03-24T11:41:07.262Z,3.10
2019-03-24T11:43:37.073Z,3.60
2019-03-24T11:46:06.797Z,3.03
2019-03-24T11:48:36.575Z,3.40
2019-03-24T11:51:06.170Z,3.00
2019-03-24T11:53:35.783Z,3.23
2019-03-24T11:56:05.704Z,3.30
2019-03-24T11:58:35.439Z,3.43
2019-03-24T12:01:05.208Z,3.33
2019-03-24T12:03:34.892Z,3.43
2019-03-24T12:06:14.007Z,3.00
2019-03-24T12:08:35.990Z,3.23
2019-03-24T12:11:05.737Z,3.73
2019-03-24T12:13:35.524Z,3.20
2019-03-24T12:16:05.604Z,3.30
2019-03-24T12:18:35.376Z,3.73
2019-03-24T12:21:05.133Z,3.33
2019-03-24T12:23:34.898Z,3.50
2019-03-24T12:26:04.892Z,3.50
2019-03-24T12:28:34.814Z,3.93
2019-03-24T12:31:04.613Z,3.17
2019-03-24T12:33:34.220Z,3.40
2019-03-24T12:36:03.976Z,3.30
2019-03-24T12:38:32.952Z,3.00
2019-03-24T12:41:01.878Z,3.30
2019-03-24T12:43:30.840Z,3.60
2019-03-24T12:45:59.892Z,3.30
2019-03-24T12:48:28.911Z,3.23
2019-03-24T12:50:59.369Z,3.30
2019-03-24T12:53:28.357Z,3.20
2019-03-24T12:55:57.254Z,3.33
2019-03-24T12:58:26.242Z,4.93
2019-03-24T13:00:55.219Z,4.13
2019-03-24T13:03:24.141Z,3.90
2019-03-24T13:05:53.023Z,3.33
2019-03-24T13:08:21.881Z,4.30
2019-03-24T13:10:50.848Z,3.63
2019-03-24T13:13:19.837Z,3.40
2019-03-24T13:15:48.821Z,3.20
2019-03-24T13:18:17.804Z,3.70
2019-03-24T13:20:50.022Z,3.70
2019-03-24T13:23:18.874Z,4.20
2019-03-24T13:25:50.384Z,4.70
2019-03-24T13:28:18.405Z,4.57
2019-03-24T13:30:47.287Z,4.17
2019-03-24T13:33:16.188Z,4.60
2019-03-24T13:35:45.166Z,3.93
2019-03-24T13:38:15.393Z,3.27
2019-03-24T13:40:44.268Z,3.10
2019-03-24T13:43:13.516Z,3.23
2019-03-24T13:45:42.720Z,3.07
2019-03-24T13:48:11.796Z,3.20
2019-03-24T13:50:40.952Z,3.73
2019-03-24T13:53:09.871Z,2.87
2019-03-24T13:55:38.807Z,3.00
2019-03-24T13:58:08.154Z,3.40
2019-03-24T14:00:37.084Z,3.07
2019-03-24T14:03:06.097Z,3.00
2019-03-24T14:05:35.086Z,2.90
2019-03-24T14:08:04.189Z,2.87
2019-03-24T14:10:33.552Z,3.10
2019-03-24T14:13:02.460Z,3.00
2019-03-24T14:15:31.376Z,3.20
2019-03-24T14:18:00.386Z,3.03
2019-03-24T14:20:54.294Z,3.30
2019-03-24T14:23:23.255Z,3.17
2019-03-24T14:25:52.174Z,3.23
2019-03-24T14:28:21.245Z,3.27
2019-03-24T14:30:50.378Z,2.90
2019-03-24T14:33:19.465Z,2.80
2019-03-24T14:35:48.415Z,3.00
2019-03-24T14:38:17.387Z,3.30
2019-03-24T14:40:46.346Z,3.00
2019-03-24T14:43:15.257Z,2.97
2019-03-24T14:45:44.457Z,7.10
2019-03-24T14:48:13.407Z,3.07
2019-03-24T14:50:53.557Z,3.40
2019-03-24T14:53:12.997Z,3.60
2019-03-24T14:55:42.014Z,3.27
2019-03-24T14:58:10.945Z,2.87
2019-03-24T15:00:43.135Z,3.37
2019-03-24T15:03:12.471Z,3.23
2019-03-24T15:05:41.429Z,3.23
2019-03-24T15:08:11.017Z,2.97
2019-03-24T15:10:41.842Z,3.17
2019-03-24T15:13:11.012Z,3.20
2019-03-24T15:15:39.996Z,3.40
2019-03-24T15:18:09.021Z,3.20
2019-03-24T15:20:37.990Z,3.57
2019-03-24T15:23:07.043Z,3.23
2019-03-24T15:25:35.921Z,2.83
2019-03-24T15:28:05.109Z,2.90
2019-03-24T15:30:34.406Z,2.90
2019-03-24T15:33:03.414Z,3.20
2019-03-24T15:35:32.325Z,3.27
2019-03-24T15:38:08.030Z,3.03
2019-03-24T15:40:31.879Z,3.07
2019-03-24T15:43:01.076Z,3.10
2019-03-24T15:45:31.840Z,2.70
2019-03-24T15:48:00.758Z,3.20
2019-03-24T15:50:30.533Z,2.47
2019-03-24T15:53:00.346Z,3.10
2019-03-24T15:55:30.138Z,2.60
2019-03-24T15:57:59.735Z,2.80
2019-03-24T16:00:49.103Z,2.53
2019-03-24T16:03:19.154Z,2.60
2019-03-24T16:05:49.218Z,2.80
2019-03-24T16:08:18.959Z,3.97
2019-03-24T16:10:48.834Z,3.20
2019-03-24T16:13:18.532Z,2.60
2019-03-24T16:15:48.309Z,3.10
2019-03-24T16:18:18.120Z,3.10
2019-03-24T16:20:47.772Z,2.63
2019-03-24T16:23:17.579Z,3.37
2019-03-24T16:25:47.749Z,2.70
2019-03-24T16:28:17.492Z,2.80
2019-03-24T16:30:47.274Z,2.83
2019-03-24T16:33:17.173Z,3.10
2019-03-24T16:35:46.818Z,2.70
2019-03-24T16:38:16.507Z,2.50
2019-03-24T16:40:46.166Z,2.50
2019-03-24T16:43:15.895Z,2.87
2019-03-24T16:45:47.356Z,2.80
2019-03-24T16:48:17.158Z,2.90
2019-03-24T16:50:46.843Z,2.80
2019-03-24T16:53:16.548Z,2.50
2019-03-24T16:55:46.338Z,2.33
2019-03-24T16:58:16.044Z,2.80
2019-03-24T17:00:45.731Z,2.60
2019-03-24T17:03:15.607Z,2.40
2019-03-24T17:05:45.359Z,3.10
2019-03-24T17:08:15.055Z,3.07
2019-03-24T17:10:44.641Z,2.90
2019-03-24T17:13:14.352Z,2.77
2019-03-24T17:15:44.276Z,2.80
2019-03-24T17:18:14.134Z,2.40
2019-03-24T17:20:43.831Z,3.00
2019-03-24T17:23:13.874Z,2.60
2019-03-24T17:25:43.767Z,3.40
2019-03-24T17:28:13.497Z,2.47
2019-03-24T17:30:43.276Z,2.80
2019-03-24T17:33:13.064Z,2.97
2019-03-24T17:35:42.895Z,3.30
2019-03-24T17:38:12.635Z,2.90
2019-03-24T17:40:42.568Z,3.53
2019-03-24T17:43:12.344Z,3.17
2019-03-24T17:45:42.262Z,3.10
2019-03-24T17:48:11.941Z,3.20
2019-03-24T17:50:41.761Z,3.13
2019-03-24T17:53:11.460Z,2.60
2019-03-24T17:55:41.227Z,3.03
2019-03-24T17:58:10.907Z,3.30
2019-03-24T18:00:43.407Z,2.93
2019-03-24T18:03:13.234Z,2.77
2019-03-24T18:05:42.784Z,2.90
2019-03-24T18:08:12.660Z,3.43
2019-03-24T18:10:42.239Z,3.57
2019-03-24T18:13:11.938Z,3.70
2019-03-24T18:15:41.683Z,3.47
2019-03-24T18:18:11.442Z,3.07
2019-03-24T18:20:41.163Z,3.50
2019-03-24T18:23:10.888Z,3.13
2019-03-24T18:25:40.801Z,3.20
2019-03-24T18:28:10.515Z,3.60
2019-03-24T18:30:40.361Z,2.83
2019-03-24T18:33:10.176Z,3.30
2019-03-24T18:35:40.131Z,3.10
2019-03-24T18:38:09.633Z,3.27
2019-03-24T18:40:39.465Z,3.33
2019-03-24T18:43:09.217Z,3.83
2019-03-24T18:45:38.962Z,3.33
2019-03-24T18:48:08.709Z,3.37
2019-03-24T18:50:38.358Z,3.23
2019-03-24T18:53:08.325Z,3.53
2019-03-24T18:55:38.152Z,3.83
2019-03-24T18:58:07.966Z,3.80
2019-03-24T19:00:40.527Z,3.40
2019-03-24T19:03:10.296Z,4.20
2019-03-24T19:05:39.845Z,3.53
2019-03-24T19:08:09.593Z,3.73
2019-03-24T19:10:39.326Z,3.97
2019-03-24T19:13:09.043Z,3.30
2019-03-24T19:15:38.929Z,4.40
2019-03-24T19:18:08.671Z,4.13
2019-03-24T19:20:38.446Z,4.00
2019-03-24T19:23:08.302Z,4.13
2019-03-24T19:25:38.291Z,4.27
2019-03-24T19:28:08.398Z,4.40
2019-03-24T19:30:40.224Z,4.10
2019-03-24T19:33:09.973Z,4.10
2019-03-24T19:35:39.696Z,4.20
2019-03-24T19:38:09.795Z,3.90
2019-03-24T19:40:39.528Z,4.40
2019-03-24T19:43:09.534Z,4.30
2019-03-24T19:45:39.302Z,3.77
2019-03-24T19:48:09.089Z,4.30
2019-03-24T19:50:38.821Z,4.03
2019-03-24T19:53:08.532Z,4.20
2019-03-24T19:55:38.255Z,3.87
2019-03-24T19:58:08.096Z,3.57
2019-03-24T20:00:37.762Z,3.60
2019-03-24T20:03:07.832Z,4.20
2019-03-24T20:05:37.473Z,3.67
2019-03-24T20:08:07.116Z,4.30
2019-03-24T20:10:36.880Z,4.73
2019-03-24T20:13:06.499Z,4.20
2019-03-24T20:15:36.295Z,4.00
2019-03-24T20:18:06.069Z,3.90
2019-03-24T20:20:35.841Z,4.80
2019-03-24T20:23:06.324Z,3.80
2019-03-24T20:25:36.070Z,4.40
2019-03-24T20:28:05.899Z,4.13
2019-03-24T20:30:35.604Z,4.60
2019-03-24T20:33:05.957Z,4.63
2019-03-24T20:35:35.685Z,4.03
2019-03-24T20:38:06.047Z,4.23
2019-03-24T20:40:35.801Z,4.53
2019-03-24T20:43:05.824Z,3.93
2019-03-24T20:45:36.726Z,4.10
2019-03-24T20:48:07.405Z,4.27
2019-03-24T20:50:37.366Z,3.87
2019-03-24T20:53:17.565Z,4.77
2019-03-24T20:55:39.543Z,4.20
2019-03-24T20:58:10.295Z,4.20
2019-03-24T21:00:41.294Z,4.60
2019-03-24T21:03:11.271Z,4.47
2019-03-24T21:05:41.314Z,4.30
2019-03-24T21:08:11.175Z,3.77
2019-03-24T21:10:41.297Z,3.80
2019-03-24T21:13:12.496Z,4.53
2019-03-24T21:15:42.466Z,4.07
2019-03-24T21:18:12.661Z,3.93
2019-03-24T21:20:43.059Z,4.40
2019-03-24T21:23:12.820Z,4.53
2019-03-24T21:25:52.169Z,3.70
2019-03-24T21:28:24.747Z,3.13
2019-03-24T21:30:55.968Z,4.20
2019-03-24T21:33:25.617Z,3.53
2019-03-24T21:35:56.713Z,3.50
2019-03-24T21:38:26.472Z,3.67
2019-03-24T21:40:56.208Z,3.40
2019-03-24T21:43:26.057Z,3.80
2019-03-24T21:45:55.780Z,2.87
2019-03-24T21:48:25.969Z,3.27
2019-03-24T21:50:55.774Z,3.23
2019-03-24T21:53:25.716Z,3.60
2019-03-24T21:55:55.821Z,3.93
2019-03-24T21:58:30.587Z,3.67
2019-03-24T22:01:00.259Z,3.67
2019-03-24T22:03:29.903Z,3.70
2019-03-24T22:05:59.529Z,3.53
2019-03-24T22:08:29.327Z,3.80
2019-03-24T22:10:58.905Z,3.77
2019-03-24T22:13:28.540Z,4.07
2019-03-24T22:15:59.163Z,4.30
2019-03-24T22:18:28.877Z,4.93
2019-03-24T22:20:58.485Z,4.37
2019-03-24T22:23:28.235Z,4.70
2019-03-24T22:25:57.800Z,4.47
2019-03-24T22:28:27.368Z,4.23
2019-03-24T22:30:59.998Z,4.50
2019-03-24T22:33:29.599Z,4.13
2019-03-24T22:36:05.484Z,4.67
2019-03-24T22:38:35.175Z,5.70
2019-03-24T22:41:04.860Z,5.60
2019-03-24T22:43:34.367Z,4.30
2019-03-24T22:46:04.044Z,4.00
2019-03-24T22:48:33.632Z,3.90
2019-03-24T22:51:03.227Z,3.77
2019-03-24T22:53:32.844Z,3.97
2019-03-24T22:56:02.510Z,4.90
2019-03-24T22:58:32.159Z,4.63
2019-03-24T23:01:02.531Z,4.77
2019-03-24T23:03:32.207Z,4.37
2019-03-24T23:06:01.895Z,4.30
2019-03-24T23:08:31.524Z,5.17
2019-03-24T23:11:01.372Z,4.67
2019-03-24T23:13:31.025Z,4.97
2019-03-24T23:16:00.686Z,4.90
2019-03-24T23:18:30.414Z,4.93
2019-03-24T23:21:00.342Z,4.60
2019-03-24T23:23:29.993Z,4.17
2019-03-24T23:25:59.663Z,5.17
2019-03-24T23:28:29.353Z,4.77
2019-03-24T23:30:58.993Z,4.20
2019-03-24T23:33:28.535Z,4.50
2019-03-24T23:35:58.099Z,4.67
2019-03-24T23:38:27.891Z,4.20
2019-03-24T23:40:57.587Z,4.37
2019-03-24T23:43:27.739Z,4.17
2019-03-24T23:45:57.495Z,4.90
2019-03-24T23:48:29.942Z,4.63
2019-03-24T23:51:02.894Z,4.40
2019-03-24T23:53:32.888Z,4.40
2019-03-24T23:56:02.959Z,4.87
2019-03-24T23:58:40.777Z,4.90
